Aérodrome :
LOGIN :

S'inscrire | Disclaimer

   EN    FR    IT 

 










Légende :    VFR   VFR Marginal   IFR   IFR Intensif   IFR Très Intensif
Visi : 
Plafond : 
>= 8 km
>= 3000ft
5 à 8 km
1000 à 3000 ft
1500m à 5 km
500 à 1000 ft
800 à 1500m
200 à 500 ft
< 800m
< 200 ft
Symboles :   Orages  Brouillard  Fortes neiges  Fortes précipitations  Vent > 20 kt
SIGMETs :   Divers  Orages  Givrage  Turbulence  Onde Orograph.  Cendres Volcan.







- Altitude de l'aérodrome : 286 ft
- Code IATA : FFD


EGVA - RAF Fairford

DERNIER METAR :
  • 250034Z AUTO 00000KT 9999 OVC036 15/14 A3006 RMK AO2 RAB2359E27DZB27E34 SLP181 $

METARs EXPIRÉS :
  • 242359Z AUTO 00000KT 9999 -RA FEW024 OVC037 15/14 A3006 RMK AO2 RAB59 SLP181 $
  • 242316Z AUTO 00000KT 9999 BKN026 BKN046 BKN100 15/14 A3006 RMK AO2 RAB05E15DZB15E16 CIG 026V055 SLP181 $
  • 242310Z AUTO 00000KT 9999 -RA SCT027 BKN046 BKN055 OVC100 15/13 A3006 RMK AO2 RAB05 SLP182 $
  • 242305Z AUTO 00000KT 9999 -RA FEW028 SCT047 BKN055 BKN100 15/13 A3006 RMK AO2 RAB05 SLP182 $
  • 242246Z AUTO 00000KT 9999 OVC050 15/13 A3006 RMK AO2 SLP182 $
  • 242156Z AUTO 12003KT 9999 BKN038 OVC060 15/13 A3007 RMK AO2 SLP185 T01500134 $

Prévision TAF périmée.
Pas de NOTAMs connus pour ce terrain.



MET'MAP, la Météo Aéronautique d'un coup d'oeil ! - Copyright ORBIFLY Décembre 2007 - Disclaimer

ORBIFLY MET'MAP TEAM :

Programmation & Développement : Alexandra Zaïnal
Conception & Développement : Baudouin d'Aumeries
Co-Programmation & Développement : Marc-Olivier Méhu
Soutien technique & logistique : Manuel Goepfert

Contact : metmap@orbifly.com




SOURCES & CREDITS :

   NOAA